sensor_id;sensor_type;location;lat;lon;timestamp;P1;durP1;ratioP1;P2;durP2;ratioP2
59786;SDS011;45672;51.612;5.536;2024-02-26T00:00:25;3.25;;;2.40;;
59786;SDS011;45672;51.612;5.536;2024-02-26T00:02:50;3.13;;;2.83;;
59786;SDS011;45672;51.612;5.536;2024-02-26T00:05:16;2.40;;;2.20;;
59786;SDS011;45672;51.612;5.536;2024-02-26T00:07:41;4.40;;;2.80;;
59786;SDS011;45672;51.612;5.536;2024-02-26T00:10:07;3.67;;;2.97;;
59786;SDS011;45672;51.612;5.536;2024-02-26T00:12:33;3.38;;;3.08;;
59786;SDS011;45672;51.612;5.536;2024-02-26T00:14:58;3.25;;;2.80;;
59786;SDS011;45672;51.612;5.536;2024-02-26T00:17:24;3.05;;;2.60;;
59786;SDS011;45672;51.612;5.536;2024-02-26T00:19:49;3.38;;;3.08;;
59786;SDS011;45672;51.612;5.536;2024-02-26T00:22:15;3.30;;;3.10;;
59786;SDS011;45672;51.612;5.536;2024-02-26T00:24:40;2.50;;;2.25;;
59786;SDS011;45672;51.612;5.536;2024-02-26T00:27:06;3.30;;;3.00;;
59786;SDS011;45672;51.612;5.536;2024-02-26T00:29:31;3.40;;;3.08;;
59786;SDS011;45672;51.612;5.536;2024-02-26T00:31:57;4.10;;;2.95;;
59786;SDS011;45672;51.612;5.536;2024-02-26T00:34:22;5.05;;;3.13;;
59786;SDS011;45672;51.612;5.536;2024-02-26T00:36:48;3.20;;;2.85;;
59786;SDS011;45672;51.612;5.536;2024-02-26T00:39:13;3.28;;;3.08;;
59786;SDS011;45672;51.612;5.536;2024-02-26T00:41:39;3.85;;;2.85;;
59786;SDS011;45672;51.612;5.536;2024-02-26T00:44:05;6.07;;;2.97;;
59786;SDS011;45672;51.612;5.536;2024-02-26T00:46:31;3.65;;;3.35;;
59786;SDS011;45672;51.612;5.536;2024-02-26T00:48:56;4.88;;;3.45;;
59786;SDS011;45672;51.612;5.536;2024-02-26T00:51:21;3.63;;;3.35;;
59786;SDS011;45672;51.612;5.536;2024-02-26T00:53:47;3.53;;;3.15;;
59786;SDS011;45672;51.612;5.536;2024-02-26T00:56:12;3.13;;;2.80;;
59786;SDS011;45672;51.612;5.536;2024-02-26T00:58:37;4.55;;;3.40;;
59786;SDS011;45672;51.612;5.536;2024-02-26T01:01:02;3.08;;;2.80;;
59786;SDS011;45672;51.612;5.536;2024-02-26T01:03:28;3.50;;;3.20;;
59786;SDS011;45672;51.612;5.536;2024-02-26T01:05:54;4.35;;;3.20;;
59786;SDS011;45672;51.612;5.536;2024-02-26T01:08:19;3.25;;;3.00;;
59786;SDS011;45672;51.612;5.536;2024-02-26T01:10:44;3.15;;;2.85;;
59786;SDS011;45672;51.612;5.536;2024-02-26T01:13:10;3.13;;;2.92;;
59786;SDS011;45672;51.612;5.536;2024-02-26T01:15:35;2.50;;;2.03;;
59786;SDS011;45672;51.612;5.536;2024-02-26T01:18:01;3.03;;;2.72;;
59786;SDS011;45672;51.612;5.536;2024-02-26T01:20:26;3.70;;;3.40;;
59786;SDS011;45672;51.612;5.536;2024-02-26T01:22:51;9.07;;;2.90;;
59786;SDS011;45672;51.612;5.536;2024-02-26T01:25:17;3.35;;;3.08;;
59786;SDS011;45672;51.612;5.536;2024-02-26T01:27:43;4.43;;;3.33;;
59786;SDS011;45672;51.612;5.536;2024-02-26T01:30:09;3.25;;;2.67;;
59786;SDS011;45672;51.612;5.536;2024-02-26T01:32:35;4.68;;;3.25;;
59786;SDS011;45672;51.612;5.536;2024-02-26T01:35:01;3.92;;;3.30;;
59786;SDS011;45672;51.612;5.536;2024-02-26T01:37:28;4.25;;;3.50;;
59786;SDS011;45672;51.612;5.536;2024-02-26T01:39:54;4.10;;;3.20;;
59786;SDS011;45672;51.612;5.536;2024-02-26T01:42:20;8.38;;;3.35;;
59786;SDS011;45672;51.612;5.536;2024-02-26T01:44:45;3.20;;;3.00;;
59786;SDS011;45672;51.612;5.536;2024-02-26T01:47:11;3.05;;;2.85;;
59786;SDS011;45672;51.612;5.536;2024-02-26T01:49:37;3.47;;;3.13;;
59786;SDS011;45672;51.612;5.536;2024-02-26T01:52:04;4.15;;;3.38;;
59786;SDS011;45672;51.612;5.536;2024-02-26T01:54:34;3.50;;;3.20;;
59786;SDS011;45672;51.612;5.536;2024-02-26T01:57:01;3.45;;;3.15;;
59786;SDS011;45672;51.612;5.536;2024-02-26T01:59:28;3.90;;;3.60;;
59786;SDS011;45672;51.612;5.536;2024-02-26T02:01:54;4.10;;;3.40;;
59786;SDS011;45672;51.612;5.536;2024-02-26T02:04:22;4.20;;;3.83;;
59786;SDS011;45672;51.612;5.536;2024-02-26T02:06:48;2.63;;;2.42;;
59786;SDS011;45672;51.612;5.536;2024-02-26T02:09:14;3.60;;;3.30;;
59786;SDS011;45672;51.612;5.536;2024-02-26T02:11:40;4.10;;;3.70;;
59786;SDS011;45672;51.612;5.536;2024-02-26T02:14:05;3.47;;;3.17;;
59786;SDS011;45672;51.612;5.536;2024-02-26T02:16:31;3.10;;;2.90;;
59786;SDS011;45672;51.612;5.536;2024-02-26T02:18:57;3.65;;;3.35;;
59786;SDS011;45672;51.612;5.536;2024-02-26T02:21:23;4.93;;;3.55;;
59786;SDS011;45672;51.612;5.536;2024-02-26T02:23:49;3.50;;;3.20;;
59786;SDS011;45672;51.612;5.536;2024-02-26T02:26:14;4.53;;;3.45;;
59786;SDS011;45672;51.612;5.536;2024-02-26T02:28:41;3.05;;;2.83;;
59786;SDS011;45672;51.612;5.536;2024-02-26T02:31:06;3.75;;;3.33;;
59786;SDS011;45672;51.612;5.536;2024-02-26T02:33:33;3.00;;;2.67;;
59786;SDS011;45672;51.612;5.536;2024-02-26T02:35:59;3.78;;;3.47;;
59786;SDS011;45672;51.612;5.536;2024-02-26T02:38:25;3.33;;;3.03;;
59786;SDS011;45672;51.612;5.536;2024-02-26T02:40:51;3.58;;;3.17;;
59786;SDS011;45672;51.612;5.536;2024-02-26T02:43:17;3.08;;;2.55;;
59786;SDS011;45672;51.612;5.536;2024-02-26T02:45:42;4.25;;;3.33;;
59786;SDS011;45672;51.612;5.536;2024-02-26T02:48:07;3.60;;;3.40;;
59786;SDS011;45672;51.612;5.536;2024-02-26T02:50:33;2.58;;;2.38;;
59786;SDS011;45672;51.612;5.536;2024-02-26T02:52:58;3.10;;;2.90;;
59786;SDS011;45672;51.612;5.536;2024-02-26T02:55:24;3.35;;;3.05;;
59786;SDS011;45672;51.612;5.536;2024-02-26T02:57:50;3.13;;;2.60;;
59786;SDS011;45672;51.612;5.536;2024-02-26T03:00:15;3.63;;;3.28;;
59786;SDS011;45672;51.612;5.536;2024-02-26T03:02:41;2.70;;;2.47;;
59786;SDS011;45672;51.612;5.536;2024-02-26T03:05:06;4.63;;;3.50;;
59786;SDS011;45672;51.612;5.536;2024-02-26T03:07:31;4.28;;;3.80;;
59786;SDS011;45672;51.612;5.536;2024-02-26T03:09:57;4.25;;;3.30;;
59786;SDS011;45672;51.612;5.536;2024-02-26T03:12:22;4.00;;;3.53;;
59786;SDS011;45672;51.612;5.536;2024-02-26T03:14:48;3.50;;;3.20;;
59786;SDS011;45672;51.612;5.536;2024-02-26T03:17:13;3.55;;;3.08;;
59786;SDS011;45672;51.612;5.536;2024-02-26T03:19:39;3.53;;;3.28;;
59786;SDS011;45672;51.612;5.536;2024-02-26T03:22:04;3.92;;;3.63;;
59786;SDS011;45672;51.612;5.536;2024-02-26T03:24:29;3.10;;;2.90;;
59786;SDS011;45672;51.612;5.536;2024-02-26T03:26:55;3.42;;;3.13;;
59786;SDS011;45672;51.612;5.536;2024-02-26T03:29:21;3.13;;;2.83;;
59786;SDS011;45672;51.612;5.536;2024-02-26T03:31:46;3.63;;;3.40;;
59786;SDS011;45672;51.612;5.536;2024-02-26T03:34:11;4.03;;;3.63;;
59786;SDS011;45672;51.612;5.536;2024-02-26T03:36:38;3.95;;;3.67;;
59786;SDS011;45672;51.612;5.536;2024-02-26T03:39:04;3.90;;;3.50;;
59786;SDS011;45672;51.612;5.536;2024-02-26T03:41:32;3.92;;;3.63;;
59786;SDS011;45672;51.612;5.536;2024-02-26T03:44:01;5.90;;;3.95;;
59786;SDS011;45672;51.612;5.536;2024-02-26T03:46:26;4.35;;;3.92;;
59786;SDS011;45672;51.612;5.536;2024-02-26T03:48:52;5.68;;;3.72;;
59786;SDS011;45672;51.612;5.536;2024-02-26T03:51:17;4.50;;;3.20;;
59786;SDS011;45672;51.612;5.536;2024-02-26T03:53:43;4.85;;;4.45;;
59786;SDS011;45672;51.612;5.536;2024-02-26T03:56:08;4.25;;;3.85;;
59786;SDS011;45672;51.612;5.536;2024-02-26T03:58:36;3.97;;;3.67;;
59786;SDS011;45672;51.612;5.536;2024-02-26T04:01:02;4.22;;;3.92;;
59786;SDS011;45672;51.612;5.536;2024-02-26T04:03:27;4.55;;;4.05;;
59786;SDS011;45672;51.612;5.536;2024-02-26T04:05:53;4.78;;;3.90;;
59786;SDS011;45672;51.612;5.536;2024-02-26T04:08:19;3.97;;;3.67;;
59786;SDS011;45672;51.612;5.536;2024-02-26T04:10:44;5.13;;;4.20;;
59786;SDS011;45672;51.612;5.536;2024-02-26T04:13:09;3.95;;;3.65;;
59786;SDS011;45672;51.612;5.536;2024-02-26T04:15:35;4.47;;;4.15;;
59786;SDS011;45672;51.612;5.536;2024-02-26T04:18:00;6.28;;;4.85;;
59786;SDS011;45672;51.612;5.536;2024-02-26T04:20:25;4.13;;;3.83;;
59786;SDS011;45672;51.612;5.536;2024-02-26T04:22:51;4.80;;;4.20;;
59786;SDS011;45672;51.612;5.536;2024-02-26T04:25:16;3.25;;;3.03;;
59786;SDS011;45672;51.612;5.536;2024-02-26T04:27:41;3.60;;;3.30;;
59786;SDS011;45672;51.612;5.536;2024-02-26T04:30:07;5.20;;;4.70;;
59786;SDS011;45672;51.612;5.536;2024-02-26T04:32:33;4.45;;;2.97;;
59786;SDS011;45672;51.612;5.536;2024-02-26T04:34:59;4.85;;;4.28;;
59786;SDS011;45672;51.612;5.536;2024-02-26T04:37:25;5.95;;;4.57;;
59786;SDS011;45672;51.612;5.536;2024-02-26T04:39:55;6.63;;;4.60;;
59786;SDS011;45672;51.612;5.536;2024-02-26T04:42:21;4.53;;;4.22;;
59786;SDS011;45672;51.612;5.536;2024-02-26T04:44:46;5.72;;;4.82;;
59786;SDS011;45672;51.612;5.536;2024-02-26T04:47:11;6.13;;;4.70;;
59786;SDS011;45672;51.612;5.536;2024-02-26T04:49:38;5.00;;;4.60;;
59786;SDS011;45672;51.612;5.536;2024-02-26T04:52:03;4.50;;;4.05;;
59786;SDS011;45672;51.612;5.536;2024-02-26T04:54:29;4.75;;;4.35;;
59786;SDS011;45672;51.612;5.536;2024-02-26T04:56:54;4.03;;;2.90;;
59786;SDS011;45672;51.612;5.536;2024-02-26T04:59:19;4.30;;;4.00;;
59786;SDS011;45672;51.612;5.536;2024-02-26T05:01:45;3.92;;;3.63;;
59786;SDS011;45672;51.612;5.536;2024-02-26T05:04:10;4.25;;;3.85;;
59786;SDS011;45672;51.612;5.536;2024-02-26T05:06:36;6.32;;;4.38;;
59786;SDS011;45672;51.612;5.536;2024-02-26T05:09:02;4.20;;;3.90;;
59786;SDS011;45672;51.612;5.536;2024-02-26T05:11:28;4.22;;;3.83;;
59786;SDS011;45672;51.612;5.536;2024-02-26T05:13:53;3.45;;;3.25;;
59786;SDS011;45672;51.612;5.536;2024-02-26T05:16:19;5.50;;;5.00;;
59786;SDS011;45672;51.612;5.536;2024-02-26T05:18:47;5.22;;;4.30;;
59786;SDS011;45672;51.612;5.536;2024-02-26T05:21:12;4.45;;;4.05;;
59786;SDS011;45672;51.612;5.536;2024-02-26T05:23:37;4.80;;;4.20;;
59786;SDS011;45672;51.612;5.536;2024-02-26T05:26:03;4.20;;;3.90;;
59786;SDS011;45672;51.612;5.536;2024-02-26T05:28:28;3.85;;;3.55;;
59786;SDS011;45672;51.612;5.536;2024-02-26T05:30:53;3.00;;;2.80;;
59786;SDS011;45672;51.612;5.536;2024-02-26T05:33:19;2.67;;;2.45;;
59786;SDS011;45672;51.612;5.536;2024-02-26T05:35:44;4.13;;;3.83;;
59786;SDS011;45672;51.612;5.536;2024-02-26T05:38:10;4.07;;;3.45;;
59786;SDS011;45672;51.612;5.536;2024-02-26T05:40:35;4.00;;;3.63;;
59786;SDS011;45672;51.612;5.536;2024-02-26T05:43:00;3.60;;;3.35;;
59786;SDS011;45672;51.612;5.536;2024-02-26T05:45:26;3.78;;;3.47;;
59786;SDS011;45672;51.612;5.536;2024-02-26T05:47:51;4.40;;;4.00;;
59786;SDS011;45672;51.612;5.536;2024-02-26T05:50:16;4.10;;;3.80;;
59786;SDS011;45672;51.612;5.536;2024-02-26T05:52:42;4.32;;;3.92;;
59786;SDS011;45672;51.612;5.536;2024-02-26T05:55:07;4.15;;;3.85;;
59786;SDS011;45672;51.612;5.536;2024-02-26T05:57:33;3.75;;;3.47;;
59786;SDS011;45672;51.612;5.536;2024-02-26T05:59:59;4.32;;;3.75;;
59786;SDS011;45672;51.612;5.536;2024-02-26T06:02:28;4.63;;;4.22;;
59786;SDS011;45672;51.612;5.536;2024-02-26T06:04:57;5.60;;;4.40;;
59786;SDS011;45672;51.612;5.536;2024-02-26T06:07:22;5.10;;;4.57;;
59786;SDS011;45672;51.612;5.536;2024-02-26T06:09:48;4.45;;;4.15;;
59786;SDS011;45672;51.612;5.536;2024-02-26T06:12:13;4.82;;;4.53;;
59786;SDS011;45672;51.612;5.536;2024-02-26T06:14:39;4.38;;;4.07;;
59786;SDS011;45672;51.612;5.536;2024-02-26T06:17:04;4.95;;;4.53;;
59786;SDS011;45672;51.612;5.536;2024-02-26T06:19:29;4.72;;;4.32;;
59786;SDS011;45672;51.612;5.536;2024-02-26T06:21:55;5.22;;;4.82;;
59786;SDS011;45672;51.612;5.536;2024-02-26T06:24:20;4.95;;;4.55;;
59786;SDS011;45672;51.612;5.536;2024-02-26T06:26:47;5.00;;;4.63;;
59786;SDS011;45672;51.612;5.536;2024-02-26T06:29:13;4.05;;;3.75;;
59786;SDS011;45672;51.612;5.536;2024-02-26T06:31:38;6.15;;;4.97;;
59786;SDS011;45672;51.612;5.536;2024-02-26T06:34:03;5.07;;;4.68;;
59786;SDS011;45672;51.612;5.536;2024-02-26T06:36:29;7.22;;;5.60;;
59786;SDS011;45672;51.612;5.536;2024-02-26T06:38:56;6.13;;;5.55;;
59786;SDS011;45672;51.612;5.536;2024-02-26T06:41:21;4.82;;;4.43;;
59786;SDS011;45672;51.612;5.536;2024-02-26T06:43:52;5.78;;;5.28;;
59786;SDS011;45672;51.612;5.536;2024-02-26T06:46:17;6.40;;;5.80;;
59786;SDS011;45672;51.612;5.536;2024-02-26T06:48:42;5.25;;;4.82;;
59786;SDS011;45672;51.612;5.536;2024-02-26T06:51:08;7.38;;;5.80;;
59786;SDS011;45672;51.612;5.536;2024-02-26T06:53:33;6.10;;;5.60;;
59786;SDS011;45672;51.612;5.536;2024-02-26T06:55:58;4.72;;;4.32;;
59786;SDS011;45672;51.612;5.536;2024-02-26T06:58:24;5.70;;;5.20;;
59786;SDS011;45672;51.612;5.536;2024-02-26T07:00:49;6.30;;;5.43;;
59786;SDS011;45672;51.612;5.536;2024-02-26T07:03:14;4.10;;;3.60;;
59786;SDS011;45672;51.612;5.536;2024-02-26T07:05:40;3.72;;;3.42;;
59786;SDS011;45672;51.612;5.536;2024-02-26T07:08:05;6.20;;;5.60;;
59786;SDS011;45672;51.612;5.536;2024-02-26T07:10:31;6.03;;;5.53;;
59786;SDS011;45672;51.612;5.536;2024-02-26T07:12:56;5.75;;;5.25;;
59786;SDS011;45672;51.612;5.536;2024-02-26T07:15:22;5.93;;;4.68;;
59786;SDS011;45672;51.612;5.536;2024-02-26T07:17:47;7.78;;;5.45;;
59786;SDS011;45672;51.612;5.536;2024-02-26T07:20:14;5.00;;;4.60;;
59786;SDS011;45672;51.612;5.536;2024-02-26T07:22:39;6.88;;;5.03;;
59786;SDS011;45672;51.612;5.536;2024-02-26T07:25:05;5.70;;;4.97;;
59786;SDS011;45672;51.612;5.536;2024-02-26T07:27:33;5.10;;;4.60;;
59786;SDS011;45672;51.612;5.536;2024-02-26T07:29:58;4.40;;;3.90;;
59786;SDS011;45672;51.612;5.536;2024-02-26T07:32:23;5.28;;;4.85;;
59786;SDS011;45672;51.612;5.536;2024-02-26T07:34:49;4.60;;;4.20;;
59786;SDS011;45672;51.612;5.536;2024-02-26T07:37:15;5.15;;;4.65;;
59786;SDS011;45672;51.612;5.536;2024-02-26T07:39:40;4.45;;;4.07;;
59786;SDS011;45672;51.612;5.536;2024-02-26T07:42:05;5.68;;;5.28;;
59786;SDS011;45672;51.612;5.536;2024-02-26T07:44:31;5.13;;;3.72;;
59786;SDS011;45672;51.612;5.536;2024-02-26T07:46:56;5.45;;;3.42;;
59786;SDS011;45672;51.612;5.536;2024-02-26T07:49:22;5.68;;;5.18;;
59786;SDS011;45672;51.612;5.536;2024-02-26T07:51:47;3.47;;;3.28;;
59786;SDS011;45672;51.612;5.536;2024-02-26T07:54:12;5.88;;;5.38;;
59786;SDS011;45672;51.612;5.536;2024-02-26T07:56:38;4.15;;;3.78;;
59786;SDS011;45672;51.612;5.536;2024-02-26T07:59:03;5.82;;;5.18;;
59786;SDS011;45672;51.612;5.536;2024-02-26T08:01:28;4.97;;;4.57;;
59786;SDS011;45672;51.612;5.536;2024-02-26T08:03:54;5.25;;;4.70;;
59786;SDS011;45672;51.612;5.536;2024-02-26T08:06:19;7.88;;;5.40;;
59786;SDS011;45672;51.612;5.536;2024-02-26T08:08:44;4.57;;;4.28;;
59786;SDS011;45672;51.612;5.536;2024-02-26T08:11:09;5.15;;;4.65;;
59786;SDS011;45672;51.612;5.536;2024-02-26T08:13:35;4.28;;;3.92;;
59786;SDS011;45672;51.612;5.536;2024-02-26T08:16:00;5.20;;;4.80;;
59786;SDS011;45672;51.612;5.536;2024-02-26T08:18:26;4.63;;;4.22;;
59786;SDS011;45672;51.612;5.536;2024-02-26T08:20:51;6.15;;;4.82;;
59786;SDS011;45672;51.612;5.536;2024-02-26T08:23:17;5.95;;;5.45;;
59786;SDS011;45672;51.612;5.536;2024-02-26T08:25:42;5.45;;;4.95;;
59786;SDS011;45672;51.612;5.536;2024-02-26T08:28:07;6.10;;;5.50;;
59786;SDS011;45672;51.612;5.536;2024-02-26T08:30:33;6.22;;;5.72;;
59786;SDS011;45672;51.612;5.536;2024-02-26T08:32:59;6.53;;;5.93;;
59786;SDS011;45672;51.612;5.536;2024-02-26T08:35:24;6.53;;;6.00;;
59786;SDS011;45672;51.612;5.536;2024-02-26T08:37:49;7.20;;;6.22;;
59786;SDS011;45672;51.612;5.536;2024-02-26T08:40:15;4.28;;;3.88;;
59786;SDS011;45672;51.612;5.536;2024-02-26T08:42:41;6.60;;;6.03;;
59786;SDS011;45672;51.612;5.536;2024-02-26T08:45:07;5.40;;;4.85;;
59786;SDS011;45672;51.612;5.536;2024-02-26T08:47:33;6.57;;;5.97;;
59786;SDS011;45672;51.612;5.536;2024-02-26T08:49:58;6.03;;;5.43;;
59786;SDS011;45672;51.612;5.536;2024-02-26T08:52:24;6.78;;;6.18;;
59786;SDS011;45672;51.612;5.536;2024-02-26T08:54:49;4.43;;;4.05;;
59786;SDS011;45672;51.612;5.536;2024-02-26T08:57:15;5.47;;;5.03;;
59786;SDS011;45672;51.612;5.536;2024-02-26T08:59:40;6.07;;;5.53;;
59786;SDS011;45672;51.612;5.536;2024-02-26T09:02:07;7.22;;;6.53;;
59786;SDS011;45672;51.612;5.536;2024-02-26T09:04:36;6.88;;;6.18;;
59786;SDS011;45672;51.612;5.536;2024-02-26T09:07:02;7.20;;;6.50;;
59786;SDS011;45672;51.612;5.536;2024-02-26T09:09:27;6.13;;;5.63;;
59786;SDS011;45672;51.612;5.536;2024-02-26T09:11:53;6.50;;;5.93;;
59786;SDS011;45672;51.612;5.536;2024-02-26T09:14:20;7.30;;;6.60;;
59786;SDS011;45672;51.612;5.536;2024-02-26T09:16:45;7.35;;;6.75;;
59786;SDS011;45672;51.612;5.536;2024-02-26T09:19:10;7.72;;;7.00;;
59786;SDS011;45672;51.612;5.536;2024-02-26T09:21:36;8.15;;;7.35;;
59786;SDS011;45672;51.612;5.536;2024-02-26T09:24:01;6.78;;;6.13;;
59786;SDS011;45672;51.612;5.536;2024-02-26T09:26:26;6.80;;;6.20;;
59786;SDS011;45672;51.612;5.536;2024-02-26T09:28:52;6.72;;;6.00;;
59786;SDS011;45672;51.612;5.536;2024-02-26T09:31:17;8.88;;;8.07;;
59786;SDS011;45672;51.612;5.536;2024-02-26T09:33:43;7.57;;;6.60;;
59786;SDS011;45672;51.612;5.536;2024-02-26T09:36:08;9.27;;;7.05;;
59786;SDS011;45672;51.612;5.536;2024-02-26T09:38:35;8.57;;;7.78;;
59786;SDS011;45672;51.612;5.536;2024-02-26T09:41:03;6.60;;;6.03;;
59786;SDS011;45672;51.612;5.536;2024-02-26T09:43:32;8.43;;;7.30;;
59786;SDS011;45672;51.612;5.536;2024-02-26T09:45:59;10.55;;;8.80;;
59786;SDS011;45672;51.612;5.536;2024-02-26T09:48:25;6.78;;;5.85;;
59786;SDS011;45672;51.612;5.536;2024-02-26T09:50:51;10.27;;;8.70;;
59786;SDS011;45672;51.612;5.536;2024-02-26T09:53:17;9.10;;;8.20;;
59786;SDS011;45672;51.612;5.536;2024-02-26T09:55:43;9.88;;;7.97;;
59786;SDS011;45672;51.612;5.536;2024-02-26T09:58:08;12.95;;;9.38;;
59786;SDS011;45672;51.612;5.536;2024-02-26T10:00:37;8.35;;;7.03;;
59786;SDS011;45672;51.612;5.536;2024-02-26T10:03:04;10.55;;;9.45;;
59786;SDS011;45672;51.612;5.536;2024-02-26T10:05:31;13.63;;;10.50;;
59786;SDS011;45672;51.612;5.536;2024-02-26T10:07:58;12.85;;;10.73;;
59786;SDS011;45672;51.612;5.536;2024-02-26T10:10:26;11.88;;;9.63;;
59786;SDS011;45672;51.612;5.536;2024-02-26T10:12:53;12.00;;;9.52;;
59786;SDS011;45672;51.612;5.536;2024-02-26T10:15:19;12.48;;;10.50;;
59786;SDS011;45672;51.612;5.536;2024-02-26T10:17:44;8.70;;;7.40;;
59786;SDS011;45672;51.612;5.536;2024-02-26T10:20:13;10.15;;;9.07;;
59786;SDS011;45672;51.612;5.536;2024-02-26T10:22:41;12.90;;;10.38;;
59786;SDS011;45672;51.612;5.536;2024-02-26T10:25:07;11.05;;;9.48;;
59786;SDS011;45672;51.612;5.536;2024-02-26T10:27:34;11.95;;;10.23;;
59786;SDS011;45672;51.612;5.536;2024-02-26T10:30:03;11.23;;;9.15;;
59786;SDS011;45672;51.612;5.536;2024-02-26T10:32:30;13.85;;;11.43;;
59786;SDS011;45672;51.612;5.536;2024-02-26T10:34:56;13.15;;;9.88;;
59786;SDS011;45672;51.612;5.536;2024-02-26T10:37:22;10.02;;;8.75;;
59786;SDS011;45672;51.612;5.536;2024-02-26T10:39:48;11.95;;;10.23;;
59786;SDS011;45672;51.612;5.536;2024-02-26T10:42:13;17.13;;;11.15;;
59786;SDS011;45672;51.612;5.536;2024-02-26T10:44:40;13.07;;;9.85;;
59786;SDS011;45672;51.612;5.536;2024-02-26T10:47:07;14.00;;;11.02;;
59786;SDS011;45672;51.612;5.536;2024-02-26T10:49:33;11.15;;;9.75;;
59786;SDS011;45672;51.612;5.536;2024-02-26T10:52:00;14.27;;;10.52;;
59786;SDS011;45672;51.612;5.536;2024-02-26T10:54:26;13.90;;;11.15;;
59786;SDS011;45672;51.612;5.536;2024-02-26T10:56:55;13.00;;;10.20;;
59786;SDS011;45672;51.612;5.536;2024-02-26T10:59:22;14.85;;;10.65;;
59786;SDS011;45672;51.612;5.536;2024-02-26T11:01:47;15.20;;;10.45;;
59786;SDS011;45672;51.612;5.536;2024-02-26T11:04:13;11.80;;;8.52;;
59786;SDS011;45672;51.612;5.536;2024-02-26T11:06:41;15.38;;;11.38;;
59786;SDS011;45672;51.612;5.536;2024-02-26T11:09:07;14.40;;;11.43;;
59786;SDS011;45672;51.612;5.536;2024-02-26T11:11:38;12.05;;;9.38;;
59786;SDS011;45672;51.612;5.536;2024-02-26T11:14:05;14.63;;;10.43;;
59786;SDS011;45672;51.612;5.536;2024-02-26T11:16:34;13.57;;;10.00;;
59786;SDS011;45672;51.612;5.536;2024-02-26T11:19:00;14.27;;;9.93;;
59786;SDS011;45672;51.612;5.536;2024-02-26T11:21:27;11.88;;;8.75;;
59786;SDS011;45672;51.612;5.536;2024-02-26T11:24:04;16.52;;;11.63;;
59786;SDS011;45672;51.612;5.536;2024-02-26T11:26:48;18.35;;;11.52;;
59786;SDS011;45672;51.612;5.536;2024-02-26T11:29:21;15.75;;;10.73;;
59786;SDS011;45672;51.612;5.536;2024-02-26T11:31:47;12.65;;;8.82;;
59786;SDS011;45672;51.612;5.536;2024-02-26T11:34:13;18.70;;;12.07;;
59786;SDS011;45672;51.612;5.536;2024-02-26T11:36:39;20.17;;;12.32;;
59786;SDS011;45672;51.612;5.536;2024-02-26T11:39:04;18.80;;;12.70;;
59786;SDS011;45672;51.612;5.536;2024-02-26T11:41:30;17.42;;;11.38;;
59786;SDS011;45672;51.612;5.536;2024-02-26T11:44:03;12.30;;;10.18;;
59786;SDS011;45672;51.612;5.536;2024-02-26T11:46:32;17.38;;;11.30;;
59786;SDS011;45672;51.612;5.536;2024-02-26T11:48:59;17.73;;;12.10;;
59786;SDS011;45672;51.612;5.536;2024-02-26T11:51:27;16.50;;;12.05;;
59786;SDS011;45672;51.612;5.536;2024-02-26T11:53:53;17.10;;;11.00;;
59786;SDS011;45672;51.612;5.536;2024-02-26T11:58:44;23.95;;;13.85;;
59786;SDS011;45672;51.612;5.536;2024-02-26T12:04:12;14.52;;;9.57;;
59786;SDS011;45672;51.612;5.536;2024-02-26T12:06:46;15.77;;;10.75;;
59786;SDS011;45672;51.612;5.536;2024-02-26T12:09:12;17.25;;;10.45;;
59786;SDS011;45672;51.612;5.536;2024-02-26T12:11:38;17.17;;;11.45;;
59786;SDS011;45672;51.612;5.536;2024-02-26T12:14:08;18.80;;;13.23;;
59786;SDS011;45672;51.612;5.536;2024-02-26T12:16:40;15.40;;;10.63;;
59786;SDS011;45672;51.612;5.536;2024-02-26T12:19:10;21.92;;;14.15;;
59786;SDS011;45672;51.612;5.536;2024-02-26T12:21:36;17.13;;;11.85;;
59786;SDS011;45672;51.612;5.536;2024-02-26T12:24:12;16.00;;;11.68;;
59786;SDS011;45672;51.612;5.536;2024-02-26T12:26:39;18.52;;;13.43;;
59786;SDS011;45672;51.612;5.536;2024-02-26T12:29:05;16.42;;;11.55;;
59786;SDS011;45672;51.612;5.536;2024-02-26T12:31:34;16.73;;;12.15;;
59786;SDS011;45672;51.612;5.536;2024-02-26T12:34:02;14.13;;;10.52;;
59786;SDS011;45672;51.612;5.536;2024-02-26T12:36:28;14.35;;;10.57;;
59786;SDS011;45672;51.612;5.536;2024-02-26T12:38:54;15.60;;;11.13;;
59786;SDS011;45672;51.612;5.536;2024-02-26T12:41:20;16.05;;;10.73;;
59786;SDS011;45672;51.612;5.536;2024-02-26T12:43:46;19.20;;;12.35;;
59786;SDS011;45672;51.612;5.536;2024-02-26T12:46:11;18.90;;;11.73;;
59786;SDS011;45672;51.612;5.536;2024-02-26T12:48:38;13.77;;;10.10;;
59786;SDS011;45672;51.612;5.536;2024-02-26T12:51:04;21.00;;;11.65;;
59786;SDS011;45672;51.612;5.536;2024-02-26T12:53:30;17.15;;;11.73;;
59786;SDS011;45672;51.612;5.536;2024-02-26T12:55:56;17.00;;;9.95;;
59786;SDS011;45672;51.612;5.536;2024-02-26T12:58:23;17.65;;;11.82;;
59786;SDS011;45672;51.612;5.536;2024-02-26T13:00:53;19.15;;;12.10;;
59786;SDS011;45672;51.612;5.536;2024-02-26T13:03:19;14.77;;;10.38;;
59786;SDS011;45672;51.612;5.536;2024-02-26T13:05:47;16.42;;;11.65;;
59786;SDS011;45672;51.612;5.536;2024-02-26T13:08:19;10.85;;;8.95;;
59786;SDS011;45672;51.612;5.536;2024-02-26T13:10:46;17.20;;;11.82;;
59786;SDS011;45672;51.612;5.536;2024-02-26T13:13:14;14.27;;;9.52;;
59786;SDS011;45672;51.612;5.536;2024-02-26T13:15:41;13.90;;;9.98;;
59786;SDS011;45672;51.612;5.536;2024-02-26T13:18:15;9.77;;;7.50;;
59786;SDS011;45672;51.612;5.536;2024-02-26T13:20:41;12.73;;;10.02;;
59786;SDS011;45672;51.612;5.536;2024-02-26T13:23:07;15.18;;;11.02;;
59786;SDS011;45672;51.612;5.536;2024-02-26T13:25:37;14.23;;;10.77;;
59786;SDS011;45672;51.612;5.536;2024-02-26T13:28:09;10.02;;;7.75;;
59786;SDS011;45672;51.612;5.536;2024-02-26T13:30:39;13.00;;;9.82;;
59786;SDS011;45672;51.612;5.536;2024-02-26T13:33:08;13.25;;;9.23;;
59786;SDS011;45672;51.612;5.536;2024-02-26T13:35:35;12.73;;;9.23;;
59786;SDS011;45672;51.612;5.536;2024-02-26T13:38:01;9.95;;;7.82;;
59786;SDS011;45672;51.612;5.536;2024-02-26T13:40:26;12.82;;;9.52;;
59786;SDS011;45672;51.612;5.536;2024-02-26T13:42:52;8.00;;;7.18;;
59786;SDS011;45672;51.612;5.536;2024-02-26T13:45:17;11.25;;;8.60;;
59786;SDS011;45672;51.612;5.536;2024-02-26T13:47:43;8.95;;;6.30;;
59786;SDS011;45672;51.612;5.536;2024-02-26T13:50:09;8.95;;;7.85;;
59786;SDS011;45672;51.612;5.536;2024-02-26T13:52:34;8.30;;;7.03;;
59786;SDS011;45672;51.612;5.536;2024-02-26T13:55:00;9.63;;;7.75;;
59786;SDS011;45672;51.612;5.536;2024-02-26T13:57:25;8.52;;;6.50;;
59786;SDS011;45672;51.612;5.536;2024-02-26T13:59:51;11.05;;;8.82;;
59786;SDS011;45672;51.612;5.536;2024-02-26T14:02:17;6.43;;;5.70;;
59786;SDS011;45672;51.612;5.536;2024-02-26T14:04:42;8.63;;;7.00;;
59786;SDS011;45672;51.612;5.536;2024-02-26T14:07:08;10.57;;;8.18;;
59786;SDS011;45672;51.612;5.536;2024-02-26T14:09:33;11.75;;;8.05;;
59786;SDS011;45672;51.612;5.536;2024-02-26T14:11:59;8.90;;;7.45;;
59786;SDS011;45672;51.612;5.536;2024-02-26T14:14:28;11.80;;;8.38;;
59786;SDS011;45672;51.612;5.536;2024-02-26T14:16:53;10.40;;;7.25;;
59786;SDS011;45672;51.612;5.536;2024-02-26T14:19:19;7.97;;;5.95;;
59786;SDS011;45672;51.612;5.536;2024-02-26T14:21:44;10.10;;;7.45;;
59786;SDS011;45672;51.612;5.536;2024-02-26T14:24:09;11.27;;;8.32;;
59786;SDS011;45672;51.612;5.536;2024-02-26T14:26:35;9.07;;;6.35;;
59786;SDS011;45672;51.612;5.536;2024-02-26T14:29:00;10.60;;;7.10;;
59786;SDS011;45672;51.612;5.536;2024-02-26T14:31:25;10.75;;;7.72;;
59786;SDS011;45672;51.612;5.536;2024-02-26T14:33:51;11.70;;;8.35;;
59786;SDS011;45672;51.612;5.536;2024-02-26T14:36:19;10.57;;;7.93;;
59786;SDS011;45672;51.612;5.536;2024-02-26T14:38:45;13.20;;;9.00;;